sensor_id;sensor_type;location;lat;lon;timestamp;P1;durP1;ratioP1;P2;durP2;ratioP2
13425;SDS011;6785;57.918;12.530;2022-12-26T00:01:22;2.43;;;1.90;;
13425;SDS011;6785;57.918;12.530;2022-12-26T00:03:51;2.77;;;2.00;;
13425;SDS011;6785;57.918;12.530;2022-12-26T00:06:20;2.80;;;2.20;;
13425;SDS011;6785;57.918;12.530;2022-12-26T00:08:48;1.90;;;1.80;;
13425;SDS011;6785;57.918;12.530;2022-12-26T00:11:15;3.07;;;2.00;;
13425;SDS011;6785;57.918;12.530;2022-12-26T00:13:43;2.23;;;1.80;;
13425;SDS011;6785;57.918;12.530;2022-12-26T00:16:11;2.73;;;1.90;;
13425;SDS011;6785;57.918;12.530;2022-12-26T00:18:39;3.37;;;1.83;;
13425;SDS011;6785;57.918;12.530;2022-12-26T00:21:06;3.30;;;1.80;;
13425;SDS011;6785;57.918;12.530;2022-12-26T00:23:35;3.00;;;2.00;;
13425;SDS011;6785;57.918;12.530;2022-12-26T00:26:02;3.67;;;2.03;;
13425;SDS011;6785;57.918;12.530;2022-12-26T00:28:30;4.10;;;2.20;;
13425;SDS011;6785;57.918;12.530;2022-12-26T00:30:57;2.33;;;2.13;;
13425;SDS011;6785;57.918;12.530;2022-12-26T00:33:24;2.70;;;2.07;;
13425;SDS011;6785;57.918;12.530;2022-12-26T00:35:51;4.13;;;2.40;;
13425;SDS011;6785;57.918;12.530;2022-12-26T00:38:17;3.20;;;2.40;;
13425;SDS011;6785;57.918;12.530;2022-12-26T00:40:45;3.67;;;2.00;;
13425;SDS011;6785;57.918;12.530;2022-12-26T00:43:12;3.13;;;2.50;;
13425;SDS011;6785;57.918;12.530;2022-12-26T00:45:42;3.00;;;2.10;;
13425;SDS011;6785;57.918;12.530;2022-12-26T00:48:09;5.90;;;2.53;;
13425;SDS011;6785;57.918;12.530;2022-12-26T00:50:36;5.80;;;2.80;;
13425;SDS011;6785;57.918;12.530;2022-12-26T00:53:03;4.47;;;2.90;;
13425;SDS011;6785;57.918;12.530;2022-12-26T00:55:29;5.67;;;2.70;;
13425;SDS011;6785;57.918;12.530;2022-12-26T00:57:58;7.23;;;2.67;;
13425;SDS011;6785;57.918;12.530;2022-12-26T01:00:25;4.80;;;2.87;;
13425;SDS011;6785;57.918;12.530;2022-12-26T01:02:51;3.77;;;2.60;;
13425;SDS011;6785;57.918;12.530;2022-12-26T01:05:18;6.07;;;3.13;;
13425;SDS011;6785;57.918;12.530;2022-12-26T01:07:45;4.13;;;3.10;;
13425;SDS011;6785;57.918;12.530;2022-12-26T01:10:12;4.97;;;2.90;;
13425;SDS011;6785;57.918;12.530;2022-12-26T01:12:39;5.77;;;3.00;;
13425;SDS011;6785;57.918;12.530;2022-12-26T01:15:08;4.23;;;2.50;;
13425;SDS011;6785;57.918;12.530;2022-12-26T01:17:35;5.00;;;2.63;;
13425;SDS011;6785;57.918;12.530;2022-12-26T01:20:02;4.10;;;2.80;;
13425;SDS011;6785;57.918;12.530;2022-12-26T01:22:29;7.73;;;3.37;;
13425;SDS011;6785;57.918;12.530;2022-12-26T01:24:56;10.47;;;4.87;;
13425;SDS011;6785;57.918;12.530;2022-12-26T01:27:24;6.13;;;3.73;;
13425;SDS011;6785;57.918;12.530;2022-12-26T01:29:51;3.87;;;2.80;;
13425;SDS011;6785;57.918;12.530;2022-12-26T01:32:19;7.47;;;3.90;;
13425;SDS011;6785;57.918;12.530;2022-12-26T01:34:46;3.30;;;3.00;;
13425;SDS011;6785;57.918;12.530;2022-12-26T01:37:13;3.30;;;2.70;;
13425;SDS011;6785;57.918;12.530;2022-12-26T01:39:41;4.03;;;3.07;;
13425;SDS011;6785;57.918;12.530;2022-12-26T01:42:10;8.23;;;2.80;;
13425;SDS011;6785;57.918;12.530;2022-12-26T01:44:55;3.00;;;2.50;;
13425;SDS011;6785;57.918;12.530;2022-12-26T01:47:29;4.63;;;2.60;;
13425;SDS011;6785;57.918;12.530;2022-12-26T01:50:04;5.93;;;3.13;;
13425;SDS011;6785;57.918;12.530;2022-12-26T01:52:41;3.13;;;2.70;;
13425;SDS011;6785;57.918;12.530;2022-12-26T01:55:10;7.10;;;2.67;;
13425;SDS011;6785;57.918;12.530;2022-12-26T01:57:41;4.53;;;2.80;;
13425;SDS011;6785;57.918;12.530;2022-12-26T02:00:11;3.03;;;2.37;;
13425;SDS011;6785;57.918;12.530;2022-12-26T02:02:40;4.43;;;2.83;;
13425;SDS011;6785;57.918;12.530;2022-12-26T02:05:22;4.17;;;3.23;;
13425;SDS011;6785;57.918;12.530;2022-12-26T02:08:02;4.43;;;2.70;;
13425;SDS011;6785;57.918;12.530;2022-12-26T02:10:32;5.33;;;2.80;;
13425;SDS011;6785;57.918;12.530;2022-12-26T02:13:03;3.40;;;2.90;;
13425;SDS011;6785;57.918;12.530;2022-12-26T02:15:30;3.47;;;2.87;;
13425;SDS011;6785;57.918;12.530;2022-12-26T02:17:58;3.67;;;2.77;;
13425;SDS011;6785;57.918;12.530;2022-12-26T02:20:25;4.10;;;3.07;;
13425;SDS011;6785;57.918;12.530;2022-12-26T02:23:18;7.53;;;3.10;;
13425;SDS011;6785;57.918;12.530;2022-12-26T02:26:13;5.03;;;3.20;;
13425;SDS011;6785;57.918;12.530;2022-12-26T02:29:09;4.23;;;3.17;;
13425;SDS011;6785;57.918;12.530;2022-12-26T02:32:06;5.40;;;3.30;;
13425;SDS011;6785;57.918;12.530;2022-12-26T02:34:40;4.80;;;3.33;;
13425;SDS011;6785;57.918;12.530;2022-12-26T02:37:19;6.60;;;3.67;;
13425;SDS011;6785;57.918;12.530;2022-12-26T02:39:56;6.37;;;3.23;;
13425;SDS011;6785;57.918;12.530;2022-12-26T02:42:32;6.73;;;3.83;;
13425;SDS011;6785;57.918;12.530;2022-12-26T02:45:08;6.50;;;3.80;;
13425;SDS011;6785;57.918;12.530;2022-12-26T02:48:04;5.73;;;3.87;;
13425;SDS011;6785;57.918;12.530;2022-12-26T02:50:38;9.63;;;3.90;;
13425;SDS011;6785;57.918;12.530;2022-12-26T02:53:35;4.77;;;3.83;;
13425;SDS011;6785;57.918;12.530;2022-12-26T02:56:29;5.30;;;3.90;;
13425;SDS011;6785;57.918;12.530;2022-12-26T02:59:19;6.10;;;4.07;;
13425;SDS011;6785;57.918;12.530;2022-12-26T03:02:08;6.60;;;3.70;;
13425;SDS011;6785;57.918;12.530;2022-12-26T03:05:10;6.13;;;4.43;;
13425;SDS011;6785;57.918;12.530;2022-12-26T03:08:01;6.63;;;4.03;;
13425;SDS011;6785;57.918;12.530;2022-12-26T03:10:49;5.23;;;3.67;;
13425;SDS011;6785;57.918;12.530;2022-12-26T03:13:35;7.27;;;4.00;;
13425;SDS011;6785;57.918;12.530;2022-12-26T03:16:05;4.27;;;3.40;;
13425;SDS011;6785;57.918;12.530;2022-12-26T03:18:52;4.80;;;3.80;;
13425;SDS011;6785;57.918;12.530;2022-12-26T03:21:25;5.00;;;3.13;;
13425;SDS011;6785;57.918;12.530;2022-12-26T03:23:55;4.90;;;3.47;;
13425;SDS011;6785;57.918;12.530;2022-12-26T03:26:23;4.63;;;3.47;;
13425;SDS011;6785;57.918;12.530;2022-12-26T03:29:04;5.03;;;3.07;;
13425;SDS011;6785;57.918;12.530;2022-12-26T03:31:50;5.70;;;3.63;;
13425;SDS011;6785;57.918;12.530;2022-12-26T03:34:17;6.10;;;4.50;;
13425;SDS011;6785;57.918;12.530;2022-12-26T03:36:45;5.80;;;3.97;;
13425;SDS011;6785;57.918;12.530;2022-12-26T03:39:22;6.43;;;4.37;;
13425;SDS011;6785;57.918;12.530;2022-12-26T03:42:12;5.57;;;3.87;;
13425;SDS011;6785;57.918;12.530;2022-12-26T03:45:06;5.97;;;4.40;;
13425;SDS011;6785;57.918;12.530;2022-12-26T03:48:00;5.50;;;3.77;;
13425;SDS011;6785;57.918;12.530;2022-12-26T03:50:55;8.10;;;4.27;;
13425;SDS011;6785;57.918;12.530;2022-12-26T03:53:52;6.73;;;4.00;;
13425;SDS011;6785;57.918;12.530;2022-12-26T03:56:42;5.67;;;4.10;;
13425;SDS011;6785;57.918;12.530;2022-12-26T03:59:33;5.00;;;3.77;;
13425;SDS011;6785;57.918;12.530;2022-12-26T04:02:22;5.43;;;3.47;;
13425;SDS011;6785;57.918;12.530;2022-12-26T04:05:09;7.33;;;4.73;;
13425;SDS011;6785;57.918;12.530;2022-12-26T04:07:57;7.37;;;4.40;;
13425;SDS011;6785;57.918;12.530;2022-12-26T04:10:48;7.37;;;4.67;;
13425;SDS011;6785;57.918;12.530;2022-12-26T04:13:37;10.87;;;4.83;;
13425;SDS011;6785;57.918;12.530;2022-12-26T04:16:33;9.10;;;4.70;;
13425;SDS011;6785;57.918;12.530;2022-12-26T04:19:25;7.57;;;5.20;;
13425;SDS011;6785;57.918;12.530;2022-12-26T04:22:08;9.83;;;5.60;;
13425;SDS011;6785;57.918;12.530;2022-12-26T04:25:04;9.07;;;5.13;;
13425;SDS011;6785;57.918;12.530;2022-12-26T04:27:54;8.00;;;5.07;;
13425;SDS011;6785;57.918;12.530;2022-12-26T04:30:39;8.60;;;5.73;;
13425;SDS011;6785;57.918;12.530;2022-12-26T04:33:26;7.87;;;5.53;;
13425;SDS011;6785;57.918;12.530;2022-12-26T04:36:15;8.73;;;5.53;;
13425;SDS011;6785;57.918;12.530;2022-12-26T04:39:07;10.23;;;5.53;;
13425;SDS011;6785;57.918;12.530;2022-12-26T04:41:54;11.23;;;5.27;;
13425;SDS011;6785;57.918;12.530;2022-12-26T04:44:42;7.20;;;5.23;;
13425;SDS011;6785;57.918;12.530;2022-12-26T04:47:14;10.07;;;5.47;;
13425;SDS011;6785;57.918;12.530;2022-12-26T04:49:41;7.30;;;5.33;;
13425;SDS011;6785;57.918;12.530;2022-12-26T04:52:26;7.87;;;4.73;;
13425;SDS011;6785;57.918;12.530;2022-12-26T04:55:13;10.20;;;5.10;;
13425;SDS011;6785;57.918;12.530;2022-12-26T04:57:40;10.83;;;4.77;;
13425;SDS011;6785;57.918;12.530;2022-12-26T05:00:09;9.47;;;5.43;;
13425;SDS011;6785;57.918;12.530;2022-12-26T05:02:36;7.30;;;4.97;;
13425;SDS011;6785;57.918;12.530;2022-12-26T05:05:21;8.67;;;5.37;;
13425;SDS011;6785;57.918;12.530;2022-12-26T05:08:06;6.27;;;4.80;;
13425;SDS011;6785;57.918;12.530;2022-12-26T05:11:02;10.20;;;5.17;;
13425;SDS011;6785;57.918;12.530;2022-12-26T05:13:29;6.83;;;4.40;;
13425;SDS011;6785;57.918;12.530;2022-12-26T05:15:57;7.47;;;4.50;;
13425;SDS011;6785;57.918;12.530;2022-12-26T05:18:41;7.77;;;4.53;;
13425;SDS011;6785;57.918;12.530;2022-12-26T05:21:26;9.00;;;4.60;;
13425;SDS011;6785;57.918;12.530;2022-12-26T05:24:10;9.53;;;4.87;;
13425;SDS011;6785;57.918;12.530;2022-12-26T05:26:54;5.63;;;4.17;;
13425;SDS011;6785;57.918;12.530;2022-12-26T05:29:38;8.20;;;4.70;;
13425;SDS011;6785;57.918;12.530;2022-12-26T05:32:07;7.70;;;4.60;;
13425;SDS011;6785;57.918;12.530;2022-12-26T05:34:33;6.10;;;4.43;;
13425;SDS011;6785;57.918;12.530;2022-12-26T05:36:59;5.63;;;4.20;;
13425;SDS011;6785;57.918;12.530;2022-12-26T05:39:26;4.53;;;3.67;;
13425;SDS011;6785;57.918;12.530;2022-12-26T05:41:52;6.03;;;4.10;;
13425;SDS011;6785;57.918;12.530;2022-12-26T05:44:19;5.13;;;3.80;;
13425;SDS011;6785;57.918;12.530;2022-12-26T05:46:46;6.17;;;3.77;;
13425;SDS011;6785;57.918;12.530;2022-12-26T05:49:15;5.40;;;3.80;;
13425;SDS011;6785;57.918;12.530;2022-12-26T05:51:41;5.90;;;3.90;;
13425;SDS011;6785;57.918;12.530;2022-12-26T05:54:08;6.57;;;3.83;;
13425;SDS011;6785;57.918;12.530;2022-12-26T05:56:35;7.67;;;3.83;;
13425;SDS011;6785;57.918;12.530;2022-12-26T05:59:02;6.10;;;4.20;;
13425;SDS011;6785;57.918;12.530;2022-12-26T06:01:28;5.97;;;3.77;;
13425;SDS011;6785;57.918;12.530;2022-12-26T06:03:56;5.73;;;3.60;;
13425;SDS011;6785;57.918;12.530;2022-12-26T06:06:25;5.20;;;3.30;;
13425;SDS011;6785;57.918;12.530;2022-12-26T06:08:53;3.97;;;3.27;;
13425;SDS011;6785;57.918;12.530;2022-12-26T06:11:20;4.73;;;3.20;;
13425;SDS011;6785;57.918;12.530;2022-12-26T06:13:49;5.17;;;3.00;;
13425;SDS011;6785;57.918;12.530;2022-12-26T06:16:16;4.97;;;3.17;;
13425;SDS011;6785;57.918;12.530;2022-12-26T06:18:44;4.80;;;3.33;;
13425;SDS011;6785;57.918;12.530;2022-12-26T06:21:12;5.67;;;3.60;;
13425;SDS011;6785;57.918;12.530;2022-12-26T06:23:41;5.27;;;2.87;;
13425;SDS011;6785;57.918;12.530;2022-12-26T06:26:08;4.27;;;3.13;;
13425;SDS011;6785;57.918;12.530;2022-12-26T06:28:37;4.00;;;3.20;;
13425;SDS011;6785;57.918;12.530;2022-12-26T06:31:05;3.90;;;3.00;;
13425;SDS011;6785;57.918;12.530;2022-12-26T06:33:34;5.13;;;3.50;;
13425;SDS011;6785;57.918;12.530;2022-12-26T06:36:01;4.53;;;3.20;;
13425;SDS011;6785;57.918;12.530;2022-12-26T06:38:29;6.13;;;2.90;;
13425;SDS011;6785;57.918;12.530;2022-12-26T06:40:57;5.53;;;2.53;;
13425;SDS011;6785;57.918;12.530;2022-12-26T06:43:24;3.37;;;2.80;;
13425;SDS011;6785;57.918;12.530;2022-12-26T06:45:54;7.73;;;3.37;;
13425;SDS011;6785;57.918;12.530;2022-12-26T06:48:21;5.33;;;3.20;;
13425;SDS011;6785;57.918;12.530;2022-12-26T06:50:48;3.07;;;2.43;;
13425;SDS011;6785;57.918;12.530;2022-12-26T06:53:18;4.87;;;2.80;;
13425;SDS011;6785;57.918;12.530;2022-12-26T06:55:45;3.67;;;2.70;;
13425;SDS011;6785;57.918;12.530;2022-12-26T06:58:13;4.60;;;2.63;;
13425;SDS011;6785;57.918;12.530;2022-12-26T07:00:40;3.83;;;2.50;;
13425;SDS011;6785;57.918;12.530;2022-12-26T07:03:07;3.70;;;2.67;;
13425;SDS011;6785;57.918;12.530;2022-12-26T07:05:34;4.37;;;2.80;;
13425;SDS011;6785;57.918;12.530;2022-12-26T07:08:01;3.27;;;2.47;;
13425;SDS011;6785;57.918;12.530;2022-12-26T07:10:28;4.70;;;2.70;;
13425;SDS011;6785;57.918;12.530;2022-12-26T07:12:54;5.40;;;2.67;;
13425;SDS011;6785;57.918;12.530;2022-12-26T07:15:22;2.57;;;2.10;;
13425;SDS011;6785;57.918;12.530;2022-12-26T07:17:50;3.13;;;2.40;;
13425;SDS011;6785;57.918;12.530;2022-12-26T07:20:17;3.20;;;2.40;;
13425;SDS011;6785;57.918;12.530;2022-12-26T07:22:44;3.77;;;2.10;;
13425;SDS011;6785;57.918;12.530;2022-12-26T07:25:10;3.57;;;2.33;;
13425;SDS011;6785;57.918;12.530;2022-12-26T07:27:37;2.73;;;2.43;;
13425;SDS011;6785;57.918;12.530;2022-12-26T07:30:04;3.07;;;2.40;;
13425;SDS011;6785;57.918;12.530;2022-12-26T07:32:33;3.53;;;2.37;;
13425;SDS011;6785;57.918;12.530;2022-12-26T07:35:00;3.07;;;2.33;;
13425;SDS011;6785;57.918;12.530;2022-12-26T07:37:26;3.00;;;2.40;;
13425;SDS011;6785;57.918;12.530;2022-12-26T07:39:53;2.90;;;2.03;;
13425;SDS011;6785;57.918;12.530;2022-12-26T07:42:20;2.97;;;2.07;;
13425;SDS011;6785;57.918;12.530;2022-12-26T07:44:46;3.23;;;2.13;;
13425;SDS011;6785;57.918;12.530;2022-12-26T07:47:13;3.90;;;2.47;;
13425;SDS011;6785;57.918;12.530;2022-12-26T07:49:41;3.47;;;2.10;;
13425;SDS011;6785;57.918;12.530;2022-12-26T07:52:08;2.30;;;1.97;;
13425;SDS011;6785;57.918;12.530;2022-12-26T07:54:35;3.67;;;2.60;;
13425;SDS011;6785;57.918;12.530;2022-12-26T07:57:01;4.50;;;2.60;;
13425;SDS011;6785;57.918;12.530;2022-12-26T07:59:28;5.27;;;3.10;;
13425;SDS011;6785;57.918;12.530;2022-12-26T08:01:55;3.37;;;2.43;;
13425;SDS011;6785;57.918;12.530;2022-12-26T08:04:23;2.60;;;2.20;;
13425;SDS011;6785;57.918;12.530;2022-12-26T08:06:51;3.10;;;2.20;;
13425;SDS011;6785;57.918;12.530;2022-12-26T08:09:18;3.20;;;2.40;;
13425;SDS011;6785;57.918;12.530;2022-12-26T08:11:45;3.10;;;2.23;;
13425;SDS011;6785;57.918;12.530;2022-12-26T08:14:12;3.37;;;2.53;;
13425;SDS011;6785;57.918;12.530;2022-12-26T08:16:40;2.83;;;2.50;;
13425;SDS011;6785;57.918;12.530;2022-12-26T08:19:07;3.93;;;2.57;;
13425;SDS011;6785;57.918;12.530;2022-12-26T08:21:34;3.23;;;2.57;;
13425;SDS011;6785;57.918;12.530;2022-12-26T08:24:02;3.90;;;2.70;;
13425;SDS011;6785;57.918;12.530;2022-12-26T08:26:28;3.43;;;2.70;;
13425;SDS011;6785;57.918;12.530;2022-12-26T08:28:56;4.93;;;3.20;;
13425;SDS011;6785;57.918;12.530;2022-12-26T08:31:23;3.97;;;2.93;;
13425;SDS011;6785;57.918;12.530;2022-12-26T08:33:49;4.23;;;2.70;;
13425;SDS011;6785;57.918;12.530;2022-12-26T08:36:20;3.33;;;2.53;;
13425;SDS011;6785;57.918;12.530;2022-12-26T08:38:47;3.33;;;2.83;;
13425;SDS011;6785;57.918;12.530;2022-12-26T08:41:15;4.93;;;2.87;;
13425;SDS011;6785;57.918;12.530;2022-12-26T08:43:42;3.50;;;2.63;;
13425;SDS011;6785;57.918;12.530;2022-12-26T08:46:12;5.13;;;2.60;;
13425;SDS011;6785;57.918;12.530;2022-12-26T08:48:39;2.70;;;2.40;;
13425;SDS011;6785;57.918;12.530;2022-12-26T08:51:07;4.47;;;3.20;;
13425;SDS011;6785;57.918;12.530;2022-12-26T08:53:35;3.60;;;2.93;;
13425;SDS011;6785;57.918;12.530;2022-12-26T08:56:03;3.90;;;3.10;;
13425;SDS011;6785;57.918;12.530;2022-12-26T08:58:33;4.10;;;3.00;;
13425;SDS011;6785;57.918;12.530;2022-12-26T09:01:07;3.70;;;2.73;;
13425;SDS011;6785;57.918;12.530;2022-12-26T09:03:35;3.57;;;2.57;;
13425;SDS011;6785;57.918;12.530;2022-12-26T09:06:02;3.50;;;2.63;;
13425;SDS011;6785;57.918;12.530;2022-12-26T09:08:29;4.00;;;2.70;;
13425;SDS011;6785;57.918;12.530;2022-12-26T09:11:00;3.20;;;2.03;;
13425;SDS011;6785;57.918;12.530;2022-12-26T09:13:27;3.37;;;2.30;;
13425;SDS011;6785;57.918;12.530;2022-12-26T09:15:56;5.30;;;2.83;;
13425;SDS011;6785;57.918;12.530;2022-12-26T09:18:30;4.10;;;2.60;;
13425;SDS011;6785;57.918;12.530;2022-12-26T09:20:58;3.63;;;2.37;;
13425;SDS011;6785;57.918;12.530;2022-12-26T09:23:25;2.47;;;2.20;;
13425;SDS011;6785;57.918;12.530;2022-12-26T09:25:52;2.40;;;2.20;;
13425;SDS011;6785;57.918;12.530;2022-12-26T09:28:18;2.77;;;2.43;;
13425;SDS011;6785;57.918;12.530;2022-12-26T09:30:45;2.50;;;2.10;;
13425;SDS011;6785;57.918;12.530;2022-12-26T09:33:13;2.53;;;2.10;;
13425;SDS011;6785;57.918;12.530;2022-12-26T09:35:40;1.83;;;1.70;;
13425;SDS011;6785;57.918;12.530;2022-12-26T09:38:07;2.57;;;2.03;;
13425;SDS011;6785;57.918;12.530;2022-12-26T09:40:39;3.40;;;2.50;;
13425;SDS011;6785;57.918;12.530;2022-12-26T09:43:16;2.37;;;2.00;;
13425;SDS011;6785;57.918;12.530;2022-12-26T09:45:51;2.27;;;1.90;;
13425;SDS011;6785;57.918;12.530;2022-12-26T09:48:31;2.07;;;1.63;;
13425;SDS011;6785;57.918;12.530;2022-12-26T09:51:03;1.87;;;1.77;;
13425;SDS011;6785;57.918;12.530;2022-12-26T09:53:31;2.27;;;1.87;;
13425;SDS011;6785;57.918;12.530;2022-12-26T09:56:02;2.10;;;1.90;;
13425;SDS011;6785;57.918;12.530;2022-12-26T09:58:32;3.80;;;1.90;;
13425;SDS011;6785;57.918;12.530;2022-12-26T10:01:00;2.27;;;1.77;;
13425;SDS011;6785;57.918;12.530;2022-12-26T10:03:36;2.07;;;1.67;;
13425;SDS011;6785;57.918;12.530;2022-12-26T10:06:07;2.23;;;2.00;;
13425;SDS011;6785;57.918;12.530;2022-12-26T10:08:42;1.80;;;1.60;;
13425;SDS011;6785;57.918;12.530;2022-12-26T10:11:20;1.80;;;1.70;;
13425;SDS011;6785;57.918;12.530;2022-12-26T10:13:56;2.67;;;1.63;;
13425;SDS011;6785;57.918;12.530;2022-12-26T10:16:32;1.93;;;1.67;;
13425;SDS011;6785;57.918;12.530;2022-12-26T10:19:16;2.23;;;1.70;;
13425;SDS011;6785;57.918;12.530;2022-12-26T10:22:02;2.50;;;1.93;;
13425;SDS011;6785;57.918;12.530;2022-12-26T10:24:34;5.67;;;3.53;;
13425;SDS011;6785;57.918;12.530;2022-12-26T10:27:04;8.03;;;5.27;;
13425;SDS011;6785;57.918;12.530;2022-12-26T10:29:36;3.90;;;2.50;;
13425;SDS011;6785;57.918;12.530;2022-12-26T10:32:07;4.27;;;3.20;;
13425;SDS011;6785;57.918;12.530;2022-12-26T10:34:40;14.20;;;8.30;;
13425;SDS011;6785;57.918;12.530;2022-12-26T10:37:10;3.00;;;2.50;;
13425;SDS011;6785;57.918;12.530;2022-12-26T10:39:44;6.73;;;4.53;;
13425;SDS011;6785;57.918;12.530;2022-12-26T10:42:17;3.30;;;2.70;;
13425;SDS011;6785;57.918;12.530;2022-12-26T10:44:48;7.30;;;3.07;;
13425;SDS011;6785;57.918;12.530;2022-12-26T10:47:22;3.00;;;2.37;;
13425;SDS011;6785;57.918;12.530;2022-12-26T10:49:52;4.77;;;2.60;;
13425;SDS011;6785;57.918;12.530;2022-12-26T10:52:24;3.00;;;2.10;;
13425;SDS011;6785;57.918;12.530;2022-12-26T10:54:56;4.03;;;2.50;;
13425;SDS011;6785;57.918;12.530;2022-12-26T10:57:25;2.80;;;2.30;;
13425;SDS011;6785;57.918;12.530;2022-12-26T10:59:54;3.17;;;2.43;;
13425;SDS011;6785;57.918;12.530;2022-12-26T11:02:23;3.63;;;2.17;;
13425;SDS011;6785;57.918;12.530;2022-12-26T11:05:00;4.47;;;2.63;;
13425;SDS011;6785;57.918;12.530;2022-12-26T11:07:32;3.93;;;2.70;;
13425;SDS011;6785;57.918;12.530;2022-12-26T11:10:01;4.47;;;2.60;;
13425;SDS011;6785;57.918;12.530;2022-12-26T11:12:33;4.47;;;2.30;;
13425;SDS011;6785;57.918;12.530;2022-12-26T11:15:04;4.63;;;2.63;;
13425;SDS011;6785;57.918;12.530;2022-12-26T11:17:42;4.33;;;2.50;;
13425;SDS011;6785;57.918;12.530;2022-12-26T11:20:24;3.77;;;2.40;;
13425;SDS011;6785;57.918;12.530;2022-12-26T11:22:54;3.20;;;2.40;;
13425;SDS011;6785;57.918;12.530;2022-12-26T11:25:39;3.00;;;2.33;;
13425;SDS011;6785;57.918;12.530;2022-12-26T11:28:18;2.80;;;2.10;;
13425;SDS011;6785;57.918;12.530;2022-12-26T11:30:49;4.00;;;2.37;;
13425;SDS011;6785;57.918;12.530;2022-12-26T11:33:19;3.77;;;2.43;;
13425;SDS011;6785;57.918;12.530;2022-12-26T11:35:51;3.77;;;2.27;;
13425;SDS011;6785;57.918;12.530;2022-12-26T11:38:22;3.03;;;2.07;;
13425;SDS011;6785;57.918;12.530;2022-12-26T11:41:04;4.93;;;2.60;;
13425;SDS011;6785;57.918;12.530;2022-12-26T11:43:53;2.03;;;1.80;;
13425;SDS011;6785;57.918;12.530;2022-12-26T11:46:24;6.70;;;2.30;;
13425;SDS011;6785;57.918;12.530;2022-12-26T11:48:58;2.53;;;1.77;;
13425;SDS011;6785;57.918;12.530;2022-12-26T11:51:38;2.27;;;1.90;;
13425;SDS011;6785;57.918;12.530;2022-12-26T11:56:59;1.93;;;1.60;;
13425;SDS011;6785;57.918;12.530;2022-12-26T11:59:38;3.00;;;1.90;;
13425;SDS011;6785;57.918;12.530;2022-12-26T12:02:13;3.23;;;1.93;;
13425;SDS011;6785;57.918;12.530;2022-12-26T12:04:42;1.83;;;1.57;;
13425;SDS011;6785;57.918;12.530;2022-12-26T12:07:13;2.87;;;2.07;;
13425;SDS011;6785;57.918;12.530;2022-12-26T12:09:50;1.77;;;1.67;;
13425;SDS011;6785;57.918;12.530;2022-12-26T12:12:21;2.07;;;1.50;;
13425;SDS011;6785;57.918;12.530;2022-12-26T12:14:58;2.17;;;1.30;;
13425;SDS011;6785;57.918;12.530;2022-12-26T12:17:38;1.67;;;1.57;;
13425;SDS011;6785;57.918;12.530;2022-12-26T12:20:18;1.67;;;1.57;;
13425;SDS011;6785;57.918;12.530;2022-12-26T12:23:02;1.97;;;1.67;;
13425;SDS011;6785;57.918;12.530;2022-12-26T12:25:52;1.70;;;1.57;;
13425;SDS011;6785;57.918;12.530;2022-12-26T12:28:29;2.00;;;1.57;;
13425;SDS011;6785;57.918;12.530;2022-12-26T12:31:26;1.80;;;1.50;;
13425;SDS011;6785;57.918;12.530;2022-12-26T12:34:02;5.10;;;2.00;;
13425;SDS011;6785;57.918;12.530;2022-12-26T12:36:48;2.10;;;1.60;;
13425;SDS011;6785;57.918;12.530;2022-12-26T12:39:29;2.23;;;1.73;;
13425;SDS011;6785;57.918;12.530;2022-12-26T12:42:08;3.03;;;1.83;;
13425;SDS011;6785;57.918;12.530;2022-12-26T12:44:48;1.50;;;1.30;;
13425;SDS011;6785;57.918;12.530;2022-12-26T12:47:28;1.60;;;1.50;;
13425;SDS011;6785;57.918;12.530;2022-12-26T12:50:03;1.67;;;1.53;;
13425;SDS011;6785;57.918;12.530;2022-12-26T12:52:43;1.60;;;1.33;;
13425;SDS011;6785;57.918;12.530;2022-12-26T12:55:27;1.40;;;1.30;;
13425;SDS011;6785;57.918;12.530;2022-12-26T12:58:10;3.50;;;1.60;;
13425;SDS011;6785;57.918;12.530;2022-12-26T13:00:48;1.40;;;1.30;;
13425;SDS011;6785;57.918;12.530;2022-12-26T13:03:22;2.33;;;1.57;;
13425;SDS011;6785;57.918;12.530;2022-12-26T13:05:54;1.50;;;1.20;;
13425;SDS011;6785;57.918;12.530;2022-12-26T13:08:29;1.17;;;1.07;;
13425;SDS011;6785;57.918;12.530;2022-12-26T13:11:02;2.10;;;1.43;;
13425;SDS011;6785;57.918;12.530;2022-12-26T13:13:32;1.77;;;1.60;;
13425;SDS011;6785;57.918;12.530;2022-12-26T13:16:03;1.80;;;1.50;;
13425;SDS011;6785;57.918;12.530;2022-12-26T13:18:36;1.23;;;1.13;;
13425;SDS011;6785;57.918;12.530;2022-12-26T13:21:07;1.40;;;1.30;;
13425;SDS011;6785;57.918;12.530;2022-12-26T13:23:39;2.37;;;1.33;;
13425;SDS011;6785;57.918;12.530;2022-12-26T13:26:28;1.70;;;1.43;;
13425;SDS011;6785;57.918;12.530;2022-12-26T13:29:02;1.47;;;1.13;;
13425;SDS011;6785;57.918;12.530;2022-12-26T13:31:32;1.53;;;1.43;;
13425;SDS011;6785;57.918;12.530;2022-12-26T13:34:00;1.20;;;1.10;;
13425;SDS011;6785;57.918;12.530;2022-12-26T13:36:33;1.10;;;0.90;;
13425;SDS011;6785;57.918;12.530;2022-12-26T13:39:28;2.53;;;1.20;;
13425;SDS011;6785;57.918;12.530;2022-12-26T13:42:16;1.50;;;1.23;;
13425;SDS011;6785;57.918;12.530;2022-12-26T13:51:07;1.57;;;1.30;;
13425;SDS011;6785;57.918;12.530;2022-12-26T13:54:07;1.10;;;1.00;;
13425;SDS011;6785;57.918;12.530;2022-12-26T13:59:39;1.83;;;1.20;;
13425;SDS011;6785;57.918;12.530;2022-12-26T14:02:15;1.00;;;1.00;;
13425;SDS011;6785;57.918;12.530;2022-12-26T14:04:56;1.23;;;1.13;;
13425;SDS011;6785;57.918;12.530;2022-12-26T14:07:31;1.60;;;1.27;;
13425;SDS011;6785;57.918;12.530;2022-12-26T14:10:05;1.30;;;1.20;;
13425;SDS011;6785;57.918;12.530;2022-12-26T14:12:43;1.43;;;1.23;;
13425;SDS011;6785;57.918;12.530;2022-12-26T14:15:33;1.37;;;1.13;;
13425;SDS011;6785;57.918;12.530;2022-12-26T14:18:12;0.83;;;0.83;;
13425;SDS011;6785;57.918;12.530;2022-12-26T14:20:56;1.07;;;0.90;;
13425;SDS011;6785;57.918;12.530;2022-12-26T14:23:41;1.50;;;1.30;;
13425;SDS011;6785;57.918;12.530;2022-12-26T14:26:13;1.33;;;1.20;;
13425;SDS011;6785;57.918;12.530;2022-12-26T14:28:55;1.43;;;1.20;;
13425;SDS011;6785;57.918;12.530;2022-12-26T14:31:33;3.03;;;1.70;;
13425;SDS011;6785;57.918;12.530;2022-12-26T14:34:14;1.93;;;1.50;;
13425;SDS011;6785;57.918;12.530;2022-12-26T14:36:49;1.40;;;1.30;;
13425;SDS011;6785;57.918;12.530;2022-12-26T14:39:23;1.87;;;1.47;;
13425;SDS011;6785;57.918;12.530;2022-12-26T14:42:14;1.57;;;1.47;;
13425;SDS011;6785;57.918;12.530;2022-12-26T14:45:02;2.37;;;1.50;;
13425;SDS011;6785;57.918;12.530;2022-12-26T14:47:37;1.47;;;1.37;;
13425;SDS011;6785;57.918;12.530;2022-12-26T14:53:21;2.10;;;1.30;;
13425;SDS011;6785;57.918;12.530;2022-12-26T14:55:56;1.60;;;1.50;;
13425;SDS011;6785;57.918;12.530;2022-12-26T14:58:41;1.77;;;1.63;;
13425;SDS011;6785;57.918;12.530;2022-12-26T15:10:35;1.50;;;1.40;;
13425;SDS011;6785;57.918;12.530;2022-12-26T15:13:51;2.37;;;1.90;;
13425;SDS011;6785;57.918;12.530;2022-12-26T15:17:00;1.70;;;1.50;;
13425;SDS011;6785;57.918;12.530;2022-12-26T15:19:42;1.40;;;1.30;;
13425;SDS011;6785;57.918;12.530;2022-12-26T15:25:50;2.10;;;1.63;;
13425;SDS011;6785;57.918;12.530;2022-12-26T15:28:35;1.97;;;1.50;;
13425;SDS011;6785;57.918;12.530;2022-12-26T15:31:27;1.87;;;1.47;;
13425;SDS011;6785;57.918;12.530;2022-12-26T15:34:04;2.43;;;1.50;;
13425;SDS011;6785;57.918;12.530;2022-12-26T15:36:47;2.27;;;1.57;;
13425;SDS011;6785;57.918;12.530;2022-12-26T15:39:21;1.50;;;1.40;;
13425;SDS011;6785;57.918;12.530;2022-12-26T15:41:55;1.73;;;1.57;;
13425;SDS011;6785;57.918;12.530;2022-12-26T15:44:27;1.63;;;1.33;;
13425;SDS011;6785;57.918;12.530;2022-12-26T15:47:03;1.37;;;1.27;;
13425;SDS011;6785;57.918;12.530;2022-12-26T15:49:57;1.70;;;1.57;;
13425;SDS011;6785;57.918;12.530;2022-12-26T15:52:35;1.47;;;1.37;;
13425;SDS011;6785;57.918;12.530;2022-12-26T15:55:15;1.50;;;1.40;;
13425;SDS011;6785;57.918;12.530;2022-12-26T15:57:54;1.87;;;1.47;;
13425;SDS011;6785;57.918;12.530;2022-12-26T16:00:26;2.60;;;1.43;;